CDT,Max TemperatureF,Mean TemperatureF,Min TemperatureF,Max Dew PointF,MeanDew PointF,Min DewpointF,Max Humidity, Mean Humidity, Min Humidity, Max Sea Level PressureIn, Mean Sea Level PressureIn, Min Sea Level PressureIn, Max VisibilityMiles, Mean VisibilityMiles, Min VisibilityMiles, Max Wind SpeedMPH, Mean Wind SpeedMPH, Max Gust SpeedMPH,PrecipitationIn, CloudCover, Events, WindDirDegrees
2013-3-1,31,28,25,23,19,17,81,72,63,30.38,30.30,30.24,10,10,9,21,11,25,0.00,8,,347
2013-3-2,31,22,12,19,15,10,92,75,58,30.42,30.34,30.19,9,7,5,12,5,14,0.00,1,,246
2013-3-3,44,35,25,32,26,19,81,69,57,30.18,29.92,29.68,10,9,7,20,12,25,0.00,0,,149
2013-3-4,46,39,31,35,32,27,85,74,62,30.05,29.77,29.63,10,9,5,18,10,29,0.01,2,Rain,3
2013-3-5,40,32,24,32,21,14,89,69,48,30.42,30.25,30.06,10,10,7,30,17,38,T,2,Rain,324
2013-3-6,41,30,19,26,21,15,84,66,48,30.48,30.39,30.26,10,10,7,15,8,18,0.00,0,,74
2013-3-7,62,44,26,30,26,22,85,56,27,30.27,30.17,30.07,10,10,8,23,13,29,0.00,0,,135
2013-3-8,60,50,39,46,39,30,77,62,47,30.14,30.05,29.93,9,8,4,29,18,37,T,4,Rain,150
2013-3-9,56,54,51,54,48,37,96,75,54,29.92,29.71,29.56,10,4,0,30,13,40,0.86,8,Fog-Rain-Thunderstorm,151
2013-3-10,52,39,25,50,31,19,100,88,75,30.02,29.79,29.57,10,5,2,30,19,39,T,8,Rain,325
2013-3-11,43,33,22,23,18,14,81,56,30,30.05,30.00,29.94,10,10,9,21,11,25,0.00,4,,300
2013-3-12,50,38,26,28,22,14,78,52,26,30.39,30.24,30.06,10,10,10,29,10,36,0.00,2,,310
2013-3-13,50,36,21,25,20,16,84,58,31,30.52,30.42,30.31,10,10,10,15,6,18,0.00,1,,175
2013-3-14,75,53,31,38,32,24,72,47,22,30.29,30.16,30.07,10,10,9,24,8,30,0.00,0,,225
2013-3-15,85,63,40,46,37,30,82,49,15,30.07,29.84,29.68,10,5,1,22,11,29,0.00,0,,221
2013-3-16,60,47,34,46,35,27,92,76,60,30.05,29.94,29.70,10,6,2,25,16,33,0.00,4,,26
2013-3-17,38,36,33,34,32,27,100,85,70,30.04,29.85,29.73,10,5,1,23,12,28,T,8,Rain,70
2013-3-18,56,45,33,35,29,16,100,60,20,30.09,29.89,29.76,10,6,1,24,11,31,0.01,4,Rain,333
2013-3-19,46,35,23,34,24,17,100,69,37,30.30,30.22,30.10,10,10,10,15,5,17,0.00,4,,86
2013-3-20,44,35,25,31,17,11,92,59,25,30.46,30.31,30.12,10,10,7,21,9,26,0.00,3,,7
2013-3-21,38,34,30,28,20,10,92,65,38,30.08,29.94,29.82,10,10,7,26,15,32,0.00,7,,104
2013-3-22,38,34,29,31,29,28,100,88,76,30.02,29.95,29.89,10,4,1,14,8,16,0.00,8,,55
2013-3-23,35,32,29,32,30,27,96,91,85,30.01,29.94,29.84,5,2,0,24,13,43,0.19,8,Fog-Rain-Snow,42
2013-3-24,32,26,20,27,23,15,92,75,58,30.18,30.00,29.85,10,4,0,30,19,43,0.12,6,Fog-Snow,339
2013-3-25,33,26,19,22,19,13,81,70,58,30.41,30.29,30.14,10,10,8,25,13,31,T,6,,314
2013-3-26,36,26,16,21,18,13,84,68,51,30.48,30.40,30.31,10,10,10,31,4,32,0.00,0,,205
2013-3-27,58,42,26,36,28,21,85,62,39,30.31,30.22,30.14,10,10,10,22,11,28,0.00,3,,116
2013-3-28,65,48,30,45,36,28,92,65,37,30.22,30.17,30.12,10,10,7,14,5,15,0.00,1,,68
2013-3-29,68,55,41,52,47,42,100,76,52,30.20,30.14,30.06,10,7,2,17,9,22,T,2,,96
2013-3-30,67,58,49,58,52,46,96,80,63,30.05,29.95,29.87,10,7,1,23,9,26,0.39,6,Rain-Thunderstorm,199
2013-3-31,65,54,43,47,39,29,93,60,26,30.02,29.99,29.96,10,9,3,26,8,31,0.10,1,Rain,306